Time;durP1;ratioP1;P1;durP2;ratioP2;P2;SDS_P1;SDS_P2;PMS_P1;PMS_P2;Temp;Humidity;BMP_temperature;BMP_pressure;BME280_temperature;BME280_humidity;BME280_pressure;Samples;Min_cycle;Max_cycle;Signal;HPM_P1;HPM_P2
2020/12/23 00:02:23;;;;;;;;;39.25;34.25;;;;;;;;5062088;28;8850;-73
2020/12/23 00:04:49;;;;;;;;;48.33;40.67;;;;;;;;5054568;28;8940;-73
2020/12/23 00:07:15;;;;;;;;;45.75;39.25;;;;;;;;5061357;28;8934;-73
2020/12/23 00:09:42;;;;;;;;;38.25;35.25;;;;;;;;5059775;28;12360;-73
2020/12/23 00:12:08;;;;;;;;;47.00;39.00;;;;;;;;5059925;28;8976;-74
2020/12/23 00:14:34;;;;;;;;;44.25;37.50;;;;;;;;5060414;28;11597;-73
2020/12/23 00:17:00;;;;;;;;;47.00;40.33;;;;;;;;5059375;28;8956;-73
2020/12/23 00:19:26;;;;;;;;;40.00;37.00;;;;;;;;5061605;28;8851;-74
2020/12/23 00:21:52;;;;;;;;;39.75;36.75;;;;;;;;5058574;28;8830;-74
2020/12/23 00:24:18;;;;;;;;;38.25;37.00;;;;;;;;5061860;28;8858;-75
2020/12/23 00:26:44;;;;;;;;;40.25;36.75;;;;;;;;5058824;28;8883;-73
2020/12/23 00:29:10;;;;;;;;;44.00;39.00;;;;;;;;5060774;28;8865;-73
2020/12/23 00:31:36;;;;;;;;;44.33;39.00;;;;;;;;5059799;28;11599;-73
2020/12/23 00:34:02;;;;;;;;;45.67;38.33;;;;;;;;5059323;28;9565;-73
2020/12/23 00:36:28;;;;;;;;;39.25;36.00;;;;;;;;5061063;28;8859;-74
2020/12/23 00:38:54;;;;;;;;;41.75;40.00;;;;;;;;5058175;28;9572;-74
2020/12/23 00:41:20;;;;;;;;;48.67;40.33;;;;;;;;5061686;28;8932;-72
2020/12/23 00:43:47;;;;;;;;;44.67;37.00;;;;;;;;5058645;28;8994;-73
2020/12/23 00:46:14;;;;;;;;;45.00;39.75;;;;;;;;5060661;28;8819;-73
2020/12/23 00:48:40;;;;;;;;;49.00;39.67;;;;;;;;5059409;28;11562;-73
2020/12/23 00:51:10;;;;;;;;;44.67;40.00;;;;;;;;5059741;28;11702;-73
2020/12/23 00:53:35;;;;;;;;;51.33;41.00;;;;;;;;5059777;28;12401;-73
2020/12/23 00:56:01;;;;;;;;;48.33;40.00;;;;;;;;5057815;28;11629;-73
2020/12/23 00:58:27;;;;;;;;;42.67;36.00;;;;;;;;5058707;28;8844;-74
2020/12/23 01:00:54;;;;;;;;;40.00;36.50;;;;;;;;5060904;28;11694;-74
2020/12/23 01:03:20;;;;;;;;;48.33;41.00;;;;;;;;5057715;28;8853;-73
2020/12/23 01:05:46;;;;;;;;;41.25;37.25;;;;;;;;5061226;28;11591;-72
2020/12/23 01:08:12;;;;;;;;;37.75;32.25;;;;;;;;5058369;28;8961;-72
2020/12/23 01:10:38;;;;;;;;;38.75;34.75;;;;;;;;5060142;28;8860;-73
2020/12/23 01:13:04;;;;;;;;;37.50;36.00;;;;;;;;5059687;28;8835;-72
2020/12/23 01:15:29;;;;;;;;;41.67;33.67;;;;;;;;5058843;28;8834;-73
2020/12/23 01:17:56;;;;;;;;;45.25;36.75;;;;;;;;5060628;28;8857;-73
2020/12/23 01:20:22;;;;;;;;;51.00;40.67;;;;;;;;5058084;28;8940;-73
2020/12/23 01:22:48;;;;;;;;;42.33;39.00;;;;;;;;5054707;28;8845;-73
2020/12/23 01:25:14;;;;;;;;;40.67;36.33;;;;;;;;5064576;28;8835;-73
2020/12/23 01:27:40;;;;;;;;;42.00;35.00;;;;;;;;5062819;28;8958;-74
2020/12/23 01:30:06;;;;;;;;;42.33;39.00;;;;;;;;5063179;28;8960;-73
2020/12/23 01:32:32;;;;;;;;;35.00;30.00;;;;;;;;5064123;28;8855;-73
2020/12/23 01:34:58;;;;;;;;;40.67;37.00;;;;;;;;5062199;28;8899;-73
2020/12/23 01:37:24;;;;;;;;;38.33;34.67;;;;;;;;5064782;28;8949;-73
2020/12/23 01:39:50;;;;;;;;;47.67;37.67;;;;;;;;5061251;28;11585;-72
2020/12/23 01:42:16;;;;;;;;;47.67;34.00;;;;;;;;5064745;28;8827;-72
2020/12/23 01:44:42;;;;;;;;;42.33;35.67;;;;;;;;5062166;28;8854;-72
2020/12/23 01:47:09;;;;;;;;;38.67;35.00;;;;;;;;5063186;28;8830;-72
2020/12/23 01:49:35;;;;;;;;;46.00;35.33;;;;;;;;5062948;28;9087;-73
2020/12/23 01:52:02;;;;;;;;;46.00;38.67;;;;;;;;5062402;28;11555;-72
2020/12/23 01:54:30;;;;;;;;;37.67;33.67;;;;;;;;5064008;28;8977;-72
2020/12/23 01:56:57;;;;;;;;;38.33;36.33;;;;;;;;5061344;28;11600;-73
2020/12/23 01:59:23;;;;;;;;;38.75;35.50;;;;;;;;5064406;28;11738;-72
2020/12/23 02:01:52;;;;;;;;;39.25;34.00;;;;;;;;5060570;28;11698;-72
2020/12/23 02:04:18;;;;;;;;;44.00;38.50;;;;;;;;5057040;28;11718;-72
2020/12/23 02:06:43;;;;;;;;;39.33;35.00;;;;;;;;5063910;28;11667;-74
2020/12/23 02:09:11;;;;;;;;;30.00;26.75;;;;;;;;5061856;28;8961;-74
2020/12/23 02:11:37;;;;;;;;;33.25;30.25;;;;;;;;5063031;28;8937;-74
2020/12/23 02:14:03;;;;;;;;;31.75;30.75;;;;;;;;5062511;28;12324;-74
2020/12/23 02:16:29;;;;;;;;;37.25;34.25;;;;;;;;5061831;28;8956;-73
2020/12/23 02:18:54;;;;;;;;;32.50;28.00;;;;;;;;5063506;28;8843;-73
2020/12/23 02:21:22;;;;;;;;;33.25;30.50;;;;;;;;5060817;28;8845;-73
2020/12/23 02:23:49;;;;;;;;;33.00;28.75;;;;;;;;5056952;28;8829;-73
2020/12/23 02:26:15;;;;;;;;;29.75;25.00;;;;;;;;5063747;28;12484;-74
2020/12/23 02:28:41;;;;;;;;;29.50;19.00;;;;;;;;5061211;28;11582;-72
2020/12/23 02:31:07;;;;;;;;;31.25;27.50;;;;;;;;5064966;28;8989;-74
2020/12/23 02:33:32;;;;;;;;;35.00;33.00;;;;;;;;5061746;28;8957;-74
2020/12/23 02:35:58;;;;;;;;;27.00;27.00;;;;;;;;5062673;28;8847;-74
2020/12/23 02:38:24;;;;;;;;;32.50;30.50;;;;;;;;5060957;28;8853;-73
2020/12/23 02:40:51;;;;;;;;;32.50;31.75;;;;;;;;5063832;28;9754;-73
2020/12/23 02:43:17;;;;;;;;;30.67;25.33;;;;;;;;5056055;28;11581;-74
2020/12/23 02:45:43;;;;;;;;;40.33;36.33;;;;;;;;5063493;28;11730;-74
2020/12/23 02:48:09;;;;;;;;;42.67;38.00;;;;;;;;5060866;28;11597;-72
2020/12/23 02:50:35;;;;;;;;;44.67;39.67;;;;;;;;5062360;28;9646;-73
2020/12/23 02:53:01;;;;;;;;;39.00;37.75;;;;;;;;5062396;28;9085;-73
2020/12/23 02:55:27;;;;;;;;;47.00;38.00;;;;;;;;5060746;28;8973;-73
2020/12/23 02:57:56;;;;;;;;;43.67;35.33;;;;;;;;5063519;28;8866;-74
2020/12/23 03:00:22;;;;;;;;;39.67;37.33;;;;;;;;5056529;28;8849;-73
2020/12/23 03:02:48;;;;;;;;;37.00;35.00;;;;;;;;5063573;28;11549;-74
2020/12/23 03:05:14;;;;;;;;;39.75;34.25;;;;;;;;5060635;28;8857;-73
2020/12/23 03:07:40;;;;;;;;;45.00;35.00;;;;;;;;5062328;28;8871;-74
2020/12/23 03:10:05;;;;;;;;;40.00;34.50;;;;;;;;5061512;28;8859;-73
2020/12/23 03:12:31;;;;;;;;;47.00;39.00;;;;;;;;5061273;28;8861;-73
2020/12/23 03:14:58;;;;;;;;;38.67;36.00;;;;;;;;5062626;28;8842;-73
2020/12/23 03:17:24;;;;;;;;;42.50;36.00;;;;;;;;5060091;28;8960;-74
2020/12/23 03:19:50;;;;;;;;;23.75;16.00;;;;;;;;5063163;28;11576;-74
2020/12/23 03:22:16;;;;;;;;;32.00;31.67;;;;;;;;5059933;28;8845;-73
2020/12/23 03:24:42;;;;;;;;;41.00;38.00;;;;;;;;5062254;28;8864;-73
2020/12/23 03:27:08;;;;;;;;;34.33;30.67;;;;;;;;5060868;28;8846;-73
2020/12/23 03:29:34;;;;;;;;;47.33;36.33;;;;;;;;5059763;28;8967;-72
2020/12/23 03:32:01;;;;;;;;;30.33;25.00;;;;;;;;5060233;28;12364;-73
2020/12/23 03:34:27;;;;;;;;;33.75;31.50;;;;;;;;5062345;28;8984;-72
2020/12/23 03:36:53;;;;;;;;;31.75;29.00;;;;;;;;5058946;28;11606;-72
2020/12/23 03:39:18;;;;;;;;;33.25;28.00;;;;;;;;5055377;28;8976;-72
2020/12/23 03:41:44;;;;;;;;;30.25;26.00;;;;;;;;5062091;28;9531;-72
2020/12/23 03:44:10;;;;;;;;;29.50;24.75;;;;;;;;5060014;28;8839;-73
2020/12/23 03:46:36;;;;;;;;;27.75;25.25;;;;;;;;5060237;28;8988;-72
2020/12/23 03:49:03;;;;;;;;;21.75;21.50;;;;;;;;5061439;28;8835;-72
2020/12/23 03:51:29;;;;;;;;;25.75;21.75;;;;;;;;5059916;28;9699;-72
2020/12/23 03:53:55;;;;;;;;;24.75;23.50;;;;;;;;5061771;28;11668;-74
2020/12/23 03:56:21;;;;;;;;;23.00;21.00;;;;;;;;5059378;28;8846;-74
2020/12/23 03:58:46;;;;;;;;;26.25;22.00;;;;;;;;5062189;28;8866;-73
2020/12/23 04:01:12;;;;;;;;;24.50;20.00;;;;;;;;5059345;28;8876;-72
2020/12/23 04:03:38;;;;;;;;;21.75;20.50;;;;;;;;5060981;28;8850;-74
2020/12/23 04:06:05;;;;;;;;;24.75;21.00;;;;;;;;5060707;28;8850;-73
2020/12/23 04:08:31;;;;;;;;;25.75;22.00;;;;;;;;5060189;28;8953;-74
2020/12/23 04:10:57;;;;;;;;;26.75;24.25;;;;;;;;5061204;28;11600;-73
2020/12/23 04:13:23;;;;;;;;;22.00;20.00;;;;;;;;5058656;28;9005;-74
2020/12/23 04:15:49;;;;;;;;;24.75;19.75;;;;;;;;5062111;28;8847;-73
2020/12/23 04:18:15;;;;;;;;;25.00;20.50;;;;;;;;5059007;28;8845;-73
2020/12/23 04:20:41;;;;;;;;;22.00;18.00;;;;;;;;5061053;28;9565;-73
2020/12/23 04:23:08;;;;;;;;;23.00;20.50;;;;;;;;5059732;28;8843;-73
2020/12/23 04:25:34;;;;;;;;;21.00;19.25;;;;;;;;5060237;28;12412;-73
2020/12/23 04:27:59;;;;;;;;;21.00;18.00;;;;;;;;5060564;28;11547;-72
2020/12/23 04:30:25;;;;;;;;;19.00;18.25;;;;;;;;5058944;28;8845;-72
2020/12/23 04:32:51;;;;;;;;;22.25;19.00;;;;;;;;5061562;28;8893;-73
2020/12/23 04:35:17;;;;;;;;;18.00;16.25;;;;;;;;5054338;28;8952;-74
2020/12/23 04:37:43;;;;;;;;;18.50;17.50;;;;;;;;5061207;28;8847;-73
2020/12/23 04:40:10;;;;;;;;;29.50;19.75;;;;;;;;5059227;28;8878;-73
2020/12/23 04:42:36;;;;;;;;;25.50;22.00;;;;;;;;5060084;28;8979;-73
2020/12/23 04:45:04;;;;;;;;;21.75;19.00;;;;;;;;5060119;28;11553;-73
2020/12/23 04:47:31;;;;;;;;;27.50;20.00;;;;;;;;5059474;28;11601;-74
2020/12/23 04:49:58;;;;;;;;;24.50;21.75;;;;;;;;5060433;28;11567;-72
2020/12/23 04:52:29;;;;;;;;;23.25;20.00;;;;;;;;5058343;28;11679;-72
2020/12/23 04:54:55;;;;;;;;;25.00;20.75;;;;;;;;5060643;28;11558;-73
2020/12/23 04:57:24;;;;;;;;;21.75;19.75;;;;;;;;5057872;28;11662;-73
2020/12/23 04:59:50;;;;;;;;;22.75;22.50;;;;;;;;5061432;28;12397;-73
2020/12/23 05:02:16;;;;;;;;;19.50;19.50;;;;;;;;5053590;28;11542;-72
2020/12/23 05:04:42;;;;;;;;;26.00;23.25;;;;;;;;5060838;28;8851;-72
2020/12/23 05:07:08;;;;;;;;;27.00;24.50;;;;;;;;5059008;28;8827;-73
2020/12/23 05:09:34;;;;;;;;;26.00;22.25;;;;;;;;5059738;28;9075;-74
2020/12/23 05:12:00;;;;;;;;;23.50;23.50;;;;;;;;5059923;28;8928;-73
2020/12/23 05:14:28;;;;;;;;;34.75;29.75;;;;;;;;5058734;28;8852;-73
2020/12/23 05:16:54;;;;;;;;;33.25;29.25;;;;;;;;5060522;28;11690;-73
2020/12/23 05:19:20;;;;;;;;;28.25;25.00;;;;;;;;5057750;28;11655;-72
2020/12/23 05:21:46;;;;;;;;;30.75;28.00;;;;;;;;5061176;28;8969;-73
2020/12/23 05:24:12;;;;;;;;;32.50;28.25;;;;;;;;5058404;28;11614;-72
2020/12/23 05:26:39;;;;;;;;;33.75;30.25;;;;;;;;5060043;28;11719;-73
2020/12/23 05:29:05;;;;;;;;;26.00;24.75;;;;;;;;5059165;28;11703;-73
2020/12/23 05:31:34;;;;;;;;;30.75;27.75;;;;;;;;5059016;28;11685;-72
2020/12/23 05:34:02;;;;;;;;;31.75;30.00;;;;;;;;5060023;28;11777;-72
2020/12/23 05:36:30;;;;;;;;;37.00;31.75;;;;;;;;5058802;28;11698;-74
2020/12/23 05:38:57;;;;;;;;;24.50;24.25;;;;;;;;5060127;28;11758;-74
2020/12/23 05:41:24;;;;;;;;;33.50;28.75;;;;;;;;5058268;28;11630;-73
2020/12/23 05:43:50;;;;;;;;;37.75;29.00;;;;;;;;5060705;28;11671;-71
2020/12/23 05:46:16;;;;;;;;;27.00;26.00;;;;;;;;5054316;28;13762;-73
2020/12/23 05:48:43;;;;;;;;;35.50;31.25;;;;;;;;5060630;28;8874;-72
2020/12/23 05:51:09;;;;;;;;;33.25;29.25;;;;;;;;5058380;28;8839;-72
2020/12/23 05:53:37;;;;;;;;;28.50;28.25;;;;;;;;5059310;28;11570;-72
2020/12/23 05:56:04;;;;;;;;;34.00;28.75;;;;;;;;5059219;28;11677;-73
2020/12/23 05:58:31;;;;;;;;;35.00;30.00;;;;;;;;5058644;28;11690;-72
2020/12/23 06:00:58;;;;;;;;;38.00;30.00;;;;;;;;5059474;28;11698;-72
2020/12/23 06:03:33;;;;;;;;;37.50;31.75;;;;;;;;5057777;28;11692;-73
2020/12/23 06:06:01;;;;;;;;;41.00;35.00;;;;;;;;5059639;28;11680;-72
2020/12/23 06:18:10;;;;;;;;;34.00;30.75;;;;;;;;5119827;27;13598;-75
2020/12/23 06:27:46;;;;;;;;;32.50;32.00;;;;;;;;5129789;27;787543;-72
2020/12/23 06:38:23;;;;;;;;;39.75;34.00;;;;;;;;5119967;27;13574;-72
2020/12/23 06:55:46;;;;;;;;;35.75;32.75;;;;;;;;5118858;27;13537;-71
2020/12/23 07:11:01;;;;;;;;;39.40;36.20;;;;;;;;5113036;27;13491;-70
2020/12/23 07:21:40;;;;;;;;;48.00;37.33;;;;;;;;5115939;27;13765;-71
2020/12/23 07:24:06;;;;;;;;;42.00;37.67;;;;;;;;5095068;28;12362;-70
2020/12/23 07:26:37;;;;;;;;;43.00;36.33;;;;;;;;5100285;28;11518;-72
2020/12/23 07:29:08;;;;;;;;;48.00;39.00;;;;;;;;5094823;28;11604;-70
2020/12/23 07:31:38;;;;;;;;;41.00;35.00;;;;;;;;5096163;28;11685;-69
2020/12/23 07:34:06;;;;;;;;;43.33;37.00;;;;;;;;5096344;28;8946;-68
2020/12/23 07:36:32;;;;;;;;;46.67;39.67;;;;;;;;5096249;28;8951;-69
2020/12/23 07:39:01;;;;;;;;;45.00;37.33;;;;;;;;5094979;28;8829;-68
2020/12/23 07:41:27;;;;;;;;;46.67;39.00;;;;;;;;5097183;28;8959;-70
2020/12/23 07:43:53;;;;;;;;;41.33;38.00;;;;;;;;5093411;28;9575;-72
2020/12/23 07:46:22;;;;;;;;;45.00;39.00;;;;;;;;5095803;28;8863;-72
2020/12/23 07:48:48;;;;;;;;;39.00;37.00;;;;;;;;5093021;28;8834;-72
2020/12/23 07:51:14;;;;;;;;;44.00;37.25;;;;;;;;5099908;28;8844;-72
2020/12/23 07:56:05;;;;;;;;;39.33;35.33;;;;;;;;5121959;27;13392;-71
2020/12/23 07:58:31;;;;;;;;;38.00;34.67;;;;;;;;5105947;28;8832;-74
2020/12/23 08:00:58;;;;;;;;;38.00;33.00;;;;;;;;5104646;28;11823;-72
2020/12/23 08:03:27;;;;;;;;;34.33;34.33;;;;;;;;5105777;28;11572;-72
2020/12/23 08:10:46;;;;;;;;;39.67;32.67;;;;;;;;5093462;27;13600;-73
2020/12/23 08:13:24;;;;;;;;;38.25;34.25;;;;;;;;5093034;28;11705;-75
2020/12/23 08:16:01;;;;;;;;;31.25;31.25;;;;;;;;5092889;28;11584;-73
2020/12/23 08:18:27;;;;;;;;;33.50;29.00;;;;;;;;5094960;28;11696;-74
2020/12/23 08:20:53;;;;;;;;;34.75;31.75;;;;;;;;5096100;28;11590;-73
2020/12/23 08:23:19;;;;;;;;;33.50;29.50;;;;;;;;5094761;28;8953;-74
2020/12/23 08:25:45;;;;;;;;;34.50;29.75;;;;;;;;5093647;28;8957;-75
2020/12/23 08:28:12;;;;;;;;;30.00;27.25;;;;;;;;5098461;28;11694;-73
2020/12/23 08:30:41;;;;;;;;;31.33;29.67;;;;;;;;5094400;28;11570;-74
2020/12/23 08:33:10;;;;;;;;;33.75;29.00;;;;;;;;5095675;28;11580;-73
2020/12/23 08:35:37;;;;;;;;;30.75;28.00;;;;;;;;5094514;28;11671;-74
2020/12/23 08:38:03;;;;;;;;;28.25;26.50;;;;;;;;5091920;28;11597;-73
2020/12/23 08:40:29;;;;;;;;;28.50;24.50;;;;;;;;5094520;28;11684;-71
2020/12/23 08:42:56;;;;;;;;;28.50;25.75;;;;;;;;5093102;28;11557;-73
2020/12/23 08:45:23;;;;;;;;;25.75;23.00;;;;;;;;5095525;28;8941;-73
2020/12/23 08:47:50;;;;;;;;;23.75;23.75;;;;;;;;5095519;28;11649;-73
2020/12/23 08:50:17;;;;;;;;;25.50;24.00;;;;;;;;5092214;28;11527;-75
2020/12/23 08:52:45;;;;;;;;;25.50;21.25;;;;;;;;5095105;28;11664;-75
2020/12/23 08:55:13;;;;;;;;;20.75;19.75;;;;;;;;5094479;28;11718;-75
2020/12/23 08:57:39;;;;;;;;;20.00;17.50;;;;;;;;5094989;28;11687;-73
2020/12/23 09:00:05;;;;;;;;;20.25;16.50;;;;;;;;5094198;28;11669;-74
2020/12/23 09:02:36;;;;;;;;;20.50;20.50;;;;;;;;5097935;28;11634;-74
2020/12/23 09:05:17;;;;;;;;;14.75;14.75;;;;;;;;5094674;28;8826;-75
2020/12/23 09:07:43;;;;;;;;;18.00;16.00;;;;;;;;5096078;28;11717;-73
2020/12/23 09:10:11;;;;;;;;;19.50;17.50;;;;;;;;5096313;28;11710;-70
2020/12/23 09:12:37;;;;;;;;;16.00;15.50;;;;;;;;5095169;28;8846;-71
2020/12/23 09:15:11;;;;;;;;;15.00;15.00;;;;;;;;5096909;28;12327;-69
2020/12/23 09:17:38;;;;;;;;;15.50;15.00;;;;;;;;5091384;28;8965;-69
2020/12/23 09:20:05;;;;;;;;;14.00;14.00;;;;;;;;5091936;28;11562;-71
2020/12/23 09:22:32;;;;;;;;;17.25;16.25;;;;;;;;5078385;28;11100;-69
2020/12/23 09:25:11;;;;;;;;;20.75;20.25;;;;;;;;5086048;28;11669;-70
2020/12/23 09:27:37;;;;;;;;;20.25;17.75;;;;;;;;5088895;28;11688;-71
2020/12/23 09:30:04;;;;;;;;;13.00;12.00;;;;;;;;5080324;28;11578;-70
2020/12/23 09:32:30;;;;;;;;;14.00;13.25;;;;;;;;5083955;28;11677;-71
2020/12/23 09:35:10;;;;;;;;;14.50;13.50;;;;;;;;5080426;28;11519;-72
2020/12/23 09:37:37;;;;;;;;;14.00;14.00;;;;;;;;5080871;28;8946;-69
2020/12/23 09:40:05;;;;;;;;;11.75;10.00;;;;;;;;5080951;28;11701;-72
2020/12/23 09:42:32;;;;;;;;;13.00;13.00;;;;;;;;5081999;28;11515;-72
2020/12/23 09:44:58;;;;;;;;;16.75;15.25;;;;;;;;5078310;28;11537;-71
2020/12/23 09:47:24;;;;;;;;;14.50;11.00;;;;;;;;5081978;28;11528;-72
2020/12/23 09:49:50;;;;;;;;;11.25;10.00;;;;;;;;5079194;28;8844;-71
2020/12/23 09:52:16;;;;;;;;;14.50;12.25;;;;;;;;5081046;28;8850;-69
2020/12/23 09:54:43;;;;;;;;;13.25;11.00;;;;;;;;5081707;28;9572;-71
2020/12/23 09:57:08;;;;;;;;;15.25;11.00;;;;;;;;5087676;28;9110;-74
2020/12/23 09:59:34;;;;;;;;;12.00;10.00;;;;;;;;5078428;28;12350;-72
2020/12/23 10:02:00;;;;;;;;;14.75;13.50;;;;;;;;5080999;28;9013;-69
2020/12/23 10:04:26;;;;;;;;;8.25;7.50;;;;;;;;5078627;28;8858;-71
2020/12/23 10:06:54;;;;;;;;;14.50;12.50;;;;;;;;5078056;28;8868;-77
2020/12/23 10:09:20;;;;;;;;;14.25;13.00;;;;;;;;5076828;28;8858;-74
2020/12/23 10:11:47;;;;;;;;;13.75;12.75;;;;;;;;5079182;28;12282;-73
2020/12/23 10:14:13;;;;;;;;;15.00;10.75;;;;;;;;5082114;28;8836;-75
2020/12/23 10:16:38;;;;;;;;;12.50;9.00;;;;;;;;5080800;28;11718;-75
2020/12/23 10:19:04;;;;;;;;;10.00;10.00;;;;;;;;5081660;28;8844;-69
2020/12/23 10:21:31;;;;;;;;;14.50;14.00;;;;;;;;5078061;28;8881;-70
2020/12/23 10:23:57;;;;;;;;;16.25;13.75;;;;;;;;5077173;28;8838;-72
2020/12/23 10:26:23;;;;;;;;;13.25;12.00;;;;;;;;5077061;28;11584;-72
2020/12/23 10:28:50;;;;;;;;;17.75;15.50;;;;;;;;5077509;28;8847;-75
2020/12/23 10:31:16;;;;;;;;;13.50;13.50;;;;;;;;5078253;28;8840;-71
2020/12/23 10:33:42;;;;;;;;;12.25;10.25;;;;;;;;5078023;28;11559;-71
2020/12/23 10:36:09;;;;;;;;;11.00;10.25;;;;;;;;5071119;28;9690;-71
2020/12/23 10:38:35;;;;;;;;;13.50;12.25;;;;;;;;5070612;28;8870;-75
2020/12/23 10:41:01;;;;;;;;;15.00;8.75;;;;;;;;5070141;28;11649;-73
2020/12/23 10:43:27;;;;;;;;;11.75;10.50;;;;;;;;5070905;28;12348;-72
2020/12/23 10:45:53;;;;;;;;;16.00;13.25;;;;;;;;5070543;28;8811;-70
2020/12/23 10:48:19;;;;;;;;;10.50;10.50;;;;;;;;5070876;28;8941;-69
2020/12/23 10:50:45;;;;;;;;;15.00;12.00;;;;;;;;5070210;28;11717;-70
2020/12/23 10:53:11;;;;;;;;;15.75;12.50;;;;;;;;5070574;28;8846;-70
2020/12/23 10:55:37;;;;;;;;;12.00;11.00;;;;;;;;5070624;28;9583;-70
2020/12/23 10:58:03;;;;;;;;;16.50;13.50;;;;;;;;5070497;28;8838;-69
2020/12/23 11:00:29;;;;;;;;;11.50;9.50;;;;;;;;5070337;28;8846;-69
2020/12/23 11:02:56;;;;;;;;;14.50;14.00;;;;;;;;5069755;28;8965;-71
2020/12/23 16:34:29;;;;;;;;;25.00;23.50;;;;;;;;5119595;27;8248;-77
2020/12/23 16:37:02;;;;;;;;;25.50;21.50;;;;;;;;5096614;28;11688;-75
2020/12/23 16:39:28;;;;;;;;;23.50;22.75;;;;;;;;5093570;28;11576;-74
2020/12/23 16:41:56;;;;;;;;;24.25;22.00;;;;;;;;5090240;28;11691;-73
2020/12/23 16:44:22;;;;;;;;;25.00;19.75;;;;;;;;5090254;28;11673;-73
2020/12/23 16:46:48;;;;;;;;;21.75;19.25;;;;;;;;5089922;28;11574;-73
2020/12/23 16:49:14;;;;;;;;;19.50;17.50;;;;;;;;5090735;28;8854;-77
2020/12/23 16:51:41;;;;;;;;;25.25;17.50;;;;;;;;5087564;28;8990;-74
2020/12/23 16:54:07;;;;;;;;;20.25;20.25;;;;;;;;5090011;28;8977;-71
2020/12/23 16:56:33;;;;;;;;;17.50;15.50;;;;;;;;5093179;28;11548;-79
2020/12/23 16:58:59;;;;;;;;;22.75;19.75;;;;;;;;5090730;28;9523;-78
2020/12/23 17:01:24;;;;;;;;;20.00;17.75;;;;;;;;5098377;28;8947;-72
2020/12/23 17:03:50;;;;;;;;;24.00;21.50;;;;;;;;5089453;28;8990;-73
2020/12/23 17:06:16;;;;;;;;;24.00;22.00;;;;;;;;5088021;28;8889;-73
2020/12/23 17:08:43;;;;;;;;;23.25;21.75;;;;;;;;5089235;28;8851;-73
2020/12/23 17:11:09;;;;;;;;;24.50;21.25;;;;;;;;5097640;28;11635;-71
2020/12/23 17:13:35;;;;;;;;;30.00;28.00;;;;;;;;5091529;28;11668;-74
2020/12/23 17:16:01;;;;;;;;;29.25;24.50;;;;;;;;5094185;28;8860;-73
2020/12/23 17:18:27;;;;;;;;;24.00;23.00;;;;;;;;5095350;28;11644;-73
2020/12/23 17:20:53;;;;;;;;;18.50;17.25;;;;;;;;5091975;28;8856;-73
2020/12/23 17:23:19;;;;;;;;;17.50;17.00;;;;;;;;5095949;28;8877;-73
2020/12/23 17:25:45;;;;;;;;;23.25;21.00;;;;;;;;5094967;28;8955;-73
2020/12/23 17:28:11;;;;;;;;;26.00;25.50;;;;;;;;5096950;28;8840;-74
2020/12/23 17:30:37;;;;;;;;;24.50;24.50;;;;;;;;5095209;28;11578;-82
2020/12/23 17:33:03;;;;;;;;;30.75;25.25;;;;;;;;5098562;28;8852;-84
2020/12/23 17:35:30;;;;;;;;;32.25;29.75;;;;;;;;5098172;28;8820;-75
2020/12/23 17:37:56;;;;;;;;;20.00;17.00;;;;;;;;5086220;28;8835;-74
2020/12/23 17:40:21;;;;;;;;;25.75;22.75;;;;;;;;5094761;28;11589;-76
2020/12/23 17:42:49;;;;;;;;;25.00;22.25;;;;;;;;5093383;28;8864;-73
2020/12/23 17:45:15;;;;;;;;;22.50;22.00;;;;;;;;5082575;28;8984;-72
2020/12/23 17:47:40;;;;;;;;;23.75;23.75;;;;;;;;5081565;28;11683;-71
2020/12/23 17:50:07;;;;;;;;;25.00;22.75;;;;;;;;5074267;28;10281;-72
2020/12/23 17:52:37;;;;;;;;;17.00;12.50;;;;;;;;5016440;28;8951;-74
2020/12/23 17:55:03;;;;;;;;;21.25;18.50;;;;;;;;5039260;28;11720;-76
2020/12/23 17:57:29;;;;;;;;;17.00;16.75;;;;;;;;5042273;28;12319;-69
2020/12/23 17:59:56;;;;;;;;;27.25;23.25;;;;;;;;5039027;28;8832;-73
2020/12/23 18:02:22;;;;;;;;;24.75;22.00;;;;;;;;5041065;28;8848;-75
2020/12/23 18:04:48;;;;;;;;;29.25;26.25;;;;;;;;5042244;28;11614;-70
2020/12/23 18:07:15;;;;;;;;;30.00;27.25;;;;;;;;5037500;28;9560;-73
2020/12/23 18:09:41;;;;;;;;;20.25;20.00;;;;;;;;5040172;28;11704;-75
2020/12/23 18:12:07;;;;;;;;;28.00;24.00;;;;;;;;5036702;28;12496;-75
2020/12/23 18:14:36;;;;;;;;;27.25;21.75;;;;;;;;5030847;28;11718;-72
2020/12/23 18:17:06;;;;;;;;;24.50;23.00;;;;;;;;5042354;28;11613;-75
2020/12/23 18:19:32;;;;;;;;;22.50;21.00;;;;;;;;5037691;28;11690;-72
2020/12/23 18:21:57;;;;;;;;;22.25;20.00;;;;;;;;5035665;28;11602;-73
2020/12/23 18:24:23;;;;;;;;;22.50;18.75;;;;;;;;5031626;28;8853;-75
2020/12/23 18:26:49;;;;;;;;;25.25;24.50;;;;;;;;5031232;28;8872;-73
2020/12/23 18:29:15;;;;;;;;;16.50;15.50;;;;;;;;5038137;28;8892;-70
2020/12/23 18:31:41;;;;;;;;;23.50;22.75;;;;;;;;5037746;28;8964;-72
2020/12/23 18:34:08;;;;;;;;;22.00;22.00;;;;;;;;5031894;28;8860;-73
2020/12/23 18:36:34;;;;;;;;;26.50;23.50;;;;;;;;5033541;28;8952;-71
2020/12/23 18:39:00;;;;;;;;;28.25;23.75;;;;;;;;5033003;28;11611;-70
2020/12/23 18:41:26;;;;;;;;;23.75;22.25;;;;;;;;5031270;28;8923;-72
2020/12/23 18:43:53;;;;;;;;;27.00;20.25;;;;;;;;5034331;28;8927;-71
2020/12/23 18:46:21;;;;;;;;;23.00;20.00;;;;;;;;5040794;28;8872;-74
2020/12/23 18:48:47;;;;;;;;;20.50;19.25;;;;;;;;5040715;28;11656;-72
2020/12/23 18:51:14;;;;;;;;;22.50;20.75;;;;;;;;5040302;28;11568;-73
2020/12/23 18:53:40;;;;;;;;;16.00;16.00;;;;;;;;5041352;28;11684;-76
2020/12/23 18:56:07;;;;;;;;;21.25;19.25;;;;;;;;5036013;28;11598;-67
2020/12/23 18:58:32;;;;;;;;;24.25;19.75;;;;;;;;5041644;28;11737;-68
2020/12/23 19:00:58;;;;;;;;;21.50;20.50;;;;;;;;5042354;28;11794;-70
2020/12/23 19:03:25;;;;;;;;;20.00;18.75;;;;;;;;5039754;28;8962;-68
2020/12/23 19:05:51;;;;;;;;;23.00;21.00;;;;;;;;5041934;28;8891;-71
2020/12/23 19:08:17;;;;;;;;;21.75;20.50;;;;;;;;5040318;28;11577;-71
2020/12/23 19:10:43;;;;;;;;;16.25;16.25;;;;;;;;5040781;28;8971;-67
2020/12/23 19:13:09;;;;;;;;;17.75;17.75;;;;;;;;5037128;28;11566;-70
2020/12/23 19:15:35;;;;;;;;;18.75;17.25;;;;;;;;5039419;28;8860;-70
2020/12/23 19:18:01;;;;;;;;;19.75;18.25;;;;;;;;5042653;28;8842;-70
2020/12/23 19:20:27;;;;;;;;;22.50;22.00;;;;;;;;5034939;28;8852;-69
2020/12/23 19:22:53;;;;;;;;;17.75;16.75;;;;;;;;5041809;28;8887;-69
2020/12/23 19:25:21;;;;;;;;;18.25;18.25;;;;;;;;5040192;28;12457;-70
2020/12/23 19:27:48;;;;;;;;;22.25;21.25;;;;;;;;5026311;28;12424;-69
2020/12/23 19:30:14;;;;;;;;;21.00;20.50;;;;;;;;5038741;28;11563;-70
2020/12/23 19:32:40;;;;;;;;;20.00;17.25;;;;;;;;5039774;28;12502;-69
2020/12/23 19:35:06;;;;;;;;;25.50;24.25;;;;;;;;5037896;28;11758;-69
2020/12/23 19:37:32;;;;;;;;;25.75;21.00;;;;;;;;5040432;28;8865;-68
2020/12/23 19:39:58;;;;;;;;;24.25;23.75;;;;;;;;5033704;28;8970;-70
2020/12/23 19:42:28;;;;;;;;;23.75;21.00;;;;;;;;5039183;28;11675;-69
2020/12/23 19:44:54;;;;;;;;;21.75;21.75;;;;;;;;5037459;28;11724;-70
2020/12/23 19:47:20;;;;;;;;;20.00;20.00;;;;;;;;5039083;28;11609;-70
2020/12/23 19:49:46;;;;;;;;;23.00;17.75;;;;;;;;5034287;28;8833;-70
2020/12/23 19:52:12;;;;;;;;;23.75;18.25;;;;;;;;5030840;28;8966;-71
2020/12/23 19:54:37;;;;;;;;;21.75;19.25;;;;;;;;5031517;28;8840;-70
2020/12/23 19:57:06;;;;;;;;;22.25;22.00;;;;;;;;5030687;28;11584;-69
2020/12/23 19:59:32;;;;;;;;;22.00;19.75;;;;;;;;5030519;28;8875;-71
2020/12/23 20:01:58;;;;;;;;;19.50;19.25;;;;;;;;5033242;28;11692;-71
2020/12/23 20:04:26;;;;;;;;;23.25;21.25;;;;;;;;5032072;28;11665;-72
2020/12/23 20:06:53;;;;;;;;;23.00;22.00;;;;;;;;5031299;28;9627;-72
2020/12/23 20:09:19;;;;;;;;;25.00;22.50;;;;;;;;5029939;28;11612;-74
2020/12/23 20:11:45;;;;;;;;;22.00;22.00;;;;;;;;5034609;28;11656;-73
2020/12/23 20:14:11;;;;;;;;;23.75;22.25;;;;;;;;5035242;28;8855;-71
2020/12/23 20:16:38;;;;;;;;;25.25;23.50;;;;;;;;5039771;28;8829;-71
2020/12/23 20:19:04;;;;;;;;;23.25;23.25;;;;;;;;5036958;28;11698;-70
2020/12/23 20:21:30;;;;;;;;;25.00;23.00;;;;;;;;5039461;28;11757;-72
2020/12/23 20:23:56;;;;;;;;;21.50;19.75;;;;;;;;5031413;28;8970;-69
2020/12/23 20:26:22;;;;;;;;;27.50;24.00;;;;;;;;5036397;28;8976;-69
2020/12/23 20:28:49;;;;;;;;;26.00;20.75;;;;;;;;5038309;28;11635;-70
2020/12/23 20:31:15;;;;;;;;;19.75;19.00;;;;;;;;5034387;28;11618;-72
2020/12/23 20:33:47;;;;;;;;;23.00;19.50;;;;;;;;5034681;28;11571;-72
2020/12/23 20:36:13;;;;;;;;;21.00;19.25;;;;;;;;5036914;28;11656;-72
2020/12/23 20:38:39;;;;;;;;;22.50;22.25;;;;;;;;5034977;28;11696;-72
2020/12/23 20:41:05;;;;;;;;;24.00;22.50;;;;;;;;5034313;28;12314;-71
2020/12/23 20:43:32;;;;;;;;;23.25;21.50;;;;;;;;5037656;28;11701;-71
2020/12/23 20:45:58;;;;;;;;;21.75;20.50;;;;;;;;5036732;28;8858;-70
2020/12/23 20:48:24;;;;;;;;;23.75;23.75;;;;;;;;5037352;28;11813;-72
2020/12/23 20:50:51;;;;;;;;;24.00;22.75;;;;;;;;5036954;28;11591;-71
2020/12/23 20:53:17;;;;;;;;;24.00;23.00;;;;;;;;5037675;28;11662;-71
2020/12/23 20:55:43;;;;;;;;;26.75;23.25;;;;;;;;5036890;28;11045;-71
2020/12/23 20:58:09;;;;;;;;;25.50;23.00;;;;;;;;5036229;28;9599;-71